Flag for Germany

Past Weather in Waltrop, North Rhine-Westphalia, Germany — Yesterday and Last 2 Weeks

Currently: 37 °F. Passing clouds. (Weather station: Dortmund / Wickede, Germany). See more current weather

Past Weather in Waltrop — Graph

°F

Waltrop Temperature Yesterday

Maximum temperature yesterday: 36 °F (at 12:20 am)
Minimum temperature yesterday: 30 °F (at 10:50 pm)
Average temperature yesterday: 33 °F

High & Low Weather Summary for the Past Weeks

 TemperatureHumidityPressure
High54 °F (Jan 21, 4:20 am)100% (Jan 12, 11:20 am)30.39 "Hg (Jan 12, 11:20 am)
Low28 °F (Jan 16, 10:50 pm)50% (Jan 20, 1:20 pm)29.03 "Hg (Jan 22, 2:20 am)
Average38 °F83%29.80 "Hg
* Reported Jan 10 3:20 pm — Jan 25 3:20 pm, Waltrop. Weather by CustomWeather, © 2021

Note: Actual official high and low records may vary slightly from our data, if they occured in-between our weather recording intervals... More about our weather records

Waltrop Weather History for the Previous 24 Hours

Scroll right to see more
 ConditionsComfort  
Time TempWeatherWind HumidityBarometerVisibility
3:20 pm
Mon, Jan 25
37 °FPassing clouds.5 mph70%29.68 "HgN/A
2:50 pm37 °FPassing clouds.5 mph75%29.68 "HgN/A
2:20 pm36 °FPassing clouds.6 mph75%29.68 "HgN/A
1:50 pm37 °FPassing clouds.6 mph81%29.65 "HgN/A
12:50 pm36 °FPassing clouds.3 mph81%29.65 "HgN/A
12:20 pm36 °FSunny.2 mph75%29.65 "Hg10 mi
11:50 am34 °FSunny.No wind81%29.62 "Hg10 mi
11:20 am34 °FSunny.No wind81%29.62 "Hg10 mi
10:50 am32 °FSunny.No wind93%29.59 "Hg10 mi
10:20 am30 °FPassing clouds.1 mph93%29.59 "HgN/A
9:50 am30 °FPassing clouds.No wind93%29.59 "HgN/A
9:20 am30 °FScattered clouds.No wind93%29.56 "HgN/A
8:50 am30 °FScattered clouds.2 mph93%29.56 "HgN/A
8:20 am30 °FPassing clouds.No wind86%29.53 "HgN/A
7:50 am30 °FPassing clouds.1 mph93%29.53 "HgN/A
7:20 am28 °FLight snow. Partly cloudy.3 mph93%29.50 "HgN/A
6:50 am30 °FPassing clouds.No wind93%29.50 "Hg5 mi
6:20 am30 °FLight snow. Passing clouds.3 mph86%29.50 "Hg4 mi
5:50 am30 °FLight snow. Passing clouds.2 mph93%29.50 "HgN/A
5:20 am30 °FLight snow. Passing clouds.3 mph86%29.50 "HgN/A
4:50 am30 °FPartly cloudy.No wind86%29.47 "HgN/A
4:20 am30 °FPartly cloudy.1 mph86%29.47 "HgN/A
3:50 am30 °FPassing clouds.2 mph86%29.47 "HgN/A
3:20 am30 °FPassing clouds.6 mph86%29.47 "HgN/A
2:50 am32 °FPartly cloudy.5 mph80%29.47 "HgN/A
2:20 am32 °FPassing clouds.3 mph80%29.47 "HgN/A
1:50 am32 °FPassing clouds.6 mph80%29.47 "HgN/A
1:20 am32 °FPassing clouds.8 mph80%29.47 "HgN/A
12:50 am32 °FPassing clouds.6 mph80%29.47 "HgN/A
12:20 am32 °FPassing clouds.9 mph80%29.47 "HgN/A
11:50 pm
Sun, Jan 24
30 °FPassing clouds.8 mph86%29.47 "HgN/A
11:20 pm32 °FPassing clouds.9 mph87%29.47 "HgN/A
10:50 pm30 °FPassing clouds.7 mph93%29.50 "HgN/A
10:20 pm32 °FClear.9 mph87%29.50 "Hg10 mi
9:50 pm32 °FClear.8 mph87%29.50 "Hg10 mi
9:20 pm32 °FClear.7 mph87%29.50 "Hg10 mi
8:50 pm32 °FClear.7 mph87%29.50 "Hg10 mi
8:20 pm32 °FClear.7 mph93%29.50 "Hg10 mi
7:50 pm32 °FClear.8 mph93%29.50 "Hg10 mi
7:20 pm34 °FClear.9 mph87%29.50 "Hg10 mi
6:50 pm34 °FClear.8 mph87%29.50 "Hg10 mi
6:20 pm34 °FPassing clouds.10 mph93%29.50 "HgN/A
5:50 pm34 °FClear.10 mph87%29.50 "Hg10 mi
5:20 pm34 °FPassing clouds.10 mph93%29.50 "HgN/A
4:50 pm34 °FPartly sunny.9 mph93%29.50 "HgN/A
4:20 pm34 °FLow clouds.10 mph93%29.50 "HgN/A
Weather by CustomWeather, © 2021

See weather overview